sensor_id;sensor_type;location;lat;lon;timestamp;P1;P2;P0
73204;PMS5003;61413;-27.702;153.216;2023-12-07T00:00:27;1;1;
73204;PMS5003;61413;-27.702;153.216;2023-12-07T00:02:54;1;1;
73204;PMS5003;61413;-27.702;153.216;2023-12-07T00:05:22;5;1;
73204;PMS5003;61413;-27.702;153.216;2023-12-07T00:07:49;2;2;
73204;PMS5003;61413;-27.702;153.216;2023-12-07T00:13:03;2;2;
73204;PMS5003;61413;-27.702;153.216;2023-12-07T00:15:31;1;1;
73204;PMS5003;61413;-27.702;153.216;2023-12-07T00:17:58;4;2;
73204;PMS5003;61413;-27.702;153.216;2023-12-07T00:20:26;5;3;
73204;PMS5003;61413;-27.702;153.216;2023-12-07T00:22:53;3;1;
73204;PMS5003;61413;-27.702;153.216;2023-12-07T00:25:20;5;2;
73204;PMS5003;61413;-27.702;153.216;2023-12-07T00:27:48;4;2;
73204;PMS5003;61413;-27.702;153.216;2023-12-07T00:30:15;2;1;
73204;PMS5003;61413;-27.702;153.216;2023-12-07T00:32:43;1;1;
73204;PMS5003;61413;-27.702;153.216;2023-12-07T00:35:10;2;1;
73204;PMS5003;61413;-27.702;153.216;2023-12-07T00:37:38;1;0;
73204;PMS5003;61413;-27.702;153.216;2023-12-07T00:40:07;2;2;
73204;PMS5003;61413;-27.702;153.216;2023-12-07T00:42:31;1;1;
73204;PMS5003;61413;-27.702;153.216;2023-12-07T00:44:59;2;2;
73204;PMS5003;61413;-27.702;153.216;2023-12-07T00:47:25;0;0;
73204;PMS5003;61413;-27.702;153.216;2023-12-07T00:49:53;2;2;
73204;PMS5003;61413;-27.702;153.216;2023-12-07T00:52:20;2;2;
73204;PMS5003;61413;-27.702;153.216;2023-12-07T00:54:46;5;3;
73204;PMS5003;61413;-27.702;153.216;2023-12-07T00:57:56;3;2;
73204;PMS5003;61413;-27.702;153.216;2023-12-07T01:00:24;5;2;
73204;PMS5003;61413;-27.702;153.216;2023-12-07T01:02:52;1;1;
73204;PMS5003;61413;-27.702;153.216;2023-12-07T01:05:20;3;0;
73204;PMS5003;61413;-27.702;153.216;2023-12-07T01:07:48;4;1;
73204;PMS5003;61413;-27.702;153.216;2023-12-07T01:11:28;2;1;
73204;PMS5003;61413;-27.702;153.216;2023-12-07T01:13:56;1;1;
73204;PMS5003;61413;-27.702;153.216;2023-12-07T01:16:23;1;1;
73204;PMS5003;61413;-27.702;153.216;2023-12-07T01:18:51;4;2;
73204;PMS5003;61413;-27.702;153.216;2023-12-07T01:21:16;6;2;
73204;PMS5003;61413;-27.702;153.216;2023-12-07T01:23:44;1;1;
73204;PMS5003;61413;-27.702;153.216;2023-12-07T01:26:11;4;2;
73204;PMS5003;61413;-27.702;153.216;2023-12-07T01:28:39;1;1;
73204;PMS5003;61413;-27.702;153.216;2023-12-07T01:34:01;2;2;
73204;PMS5003;61413;-27.702;153.216;2023-12-07T01:36:27;3;2;
73204;PMS5003;61413;-27.702;153.216;2023-12-07T01:41:27;1;1;
73204;PMS5003;61413;-27.702;153.216;2023-12-07T01:43:54;1;1;
73204;PMS5003;61413;-27.702;153.216;2023-12-07T01:46:22;3;2;
73204;PMS5003;61413;-27.702;153.216;2023-12-07T01:48:50;4;2;
73204;PMS5003;61413;-27.702;153.216;2023-12-07T01:51:19;1;1;
73204;PMS5003;61413;-27.702;153.216;2023-12-07T01:53:47;4;2;
73204;PMS5003;61413;-27.702;153.216;2023-12-07T01:56:12;1;1;
73204;PMS5003;61413;-27.702;153.216;2023-12-07T01:58:40;0;0;
73204;PMS5003;61413;-27.702;153.216;2023-12-07T02:01:05;0;0;
73204;PMS5003;61413;-27.702;153.216;2023-12-07T02:03:34;0;0;
73204;PMS5003;61413;-27.702;153.216;2023-12-07T02:05:59;2;1;
73204;PMS5003;61413;-27.702;153.216;2023-12-07T02:08:25;2;1;
73204;PMS5003;61413;-27.702;153.216;2023-12-07T02:10:53;1;1;
73204;PMS5003;61413;-27.702;153.216;2023-12-07T02:13:21;4;2;
73204;PMS5003;61413;-27.702;153.216;2023-12-07T02:15:49;3;1;
73204;PMS5003;61413;-27.702;153.216;2023-12-07T02:18:15;4;2;
73204;PMS5003;61413;-27.702;153.216;2023-12-07T02:21:37;3;3;
73204;PMS5003;61413;-27.702;153.216;2023-12-07T02:24:02;1;1;
73204;PMS5003;61413;-27.702;153.216;2023-12-07T02:26:30;0;0;
73204;PMS5003;61413;-27.702;153.216;2023-12-07T02:28:55;1;1;
73204;PMS5003;61413;-27.702;153.216;2023-12-07T02:31:23;1;0;
73204;PMS5003;61413;-27.702;153.216;2023-12-07T02:33:51;2;1;
73204;PMS5003;61413;-27.702;153.216;2023-12-07T02:36:17;1;1;
73204;PMS5003;61413;-27.702;153.216;2023-12-07T02:38:43;7;1;
73204;PMS5003;61413;-27.702;153.216;2023-12-07T02:41:08;1;1;
73204;PMS5003;61413;-27.702;153.216;2023-12-07T02:43:36;3;2;
73204;PMS5003;61413;-27.702;153.216;2023-12-07T02:46:07;3;3;
73204;PMS5003;61413;-27.702;153.216;2023-12-07T02:48:31;1;1;
73204;PMS5003;61413;-27.702;153.216;2023-12-07T02:50:59;1;1;
73204;PMS5003;61413;-27.702;153.216;2023-12-07T02:53:25;1;1;
73204;PMS5003;61413;-27.702;153.216;2023-12-07T02:55:53;3;2;
73204;PMS5003;61413;-27.702;153.216;2023-12-07T02:58:21;3;2;
73204;PMS5003;61413;-27.702;153.216;2023-12-07T03:00:49;1;1;
73204;PMS5003;61413;-27.702;153.216;2023-12-07T03:03:17;0;0;
73204;PMS5003;61413;-27.702;153.216;2023-12-07T03:05:45;0;0;
73204;PMS5003;61413;-27.702;153.216;2023-12-07T03:08:13;1;0;
73204;PMS5003;61413;-27.702;153.216;2023-12-07T03:10:40;8;2;
73204;PMS5003;61413;-27.702;153.216;2023-12-07T03:13:08;3;3;
73204;PMS5003;61413;-27.702;153.216;2023-12-07T03:15:36;2;1;
73204;PMS5003;61413;-27.702;153.216;2023-12-07T03:18:04;3;1;
73204;PMS5003;61413;-27.702;153.216;2023-12-07T03:20:32;1;1;
73204;PMS5003;61413;-27.702;153.216;2023-12-07T03:23:00;3;2;
73204;PMS5003;61413;-27.702;153.216;2023-12-07T03:25:28;1;1;
73204;PMS5003;61413;-27.702;153.216;2023-12-07T03:27:56;5;3;
73204;PMS5003;61413;-27.702;153.216;2023-12-07T03:30:24;1;1;
73204;PMS5003;61413;-27.702;153.216;2023-12-07T03:32:51;0;0;
73204;PMS5003;61413;-27.702;153.216;2023-12-07T03:35:19;1;1;
73204;PMS5003;61413;-27.702;153.216;2023-12-07T03:37:47;1;0;
73204;PMS5003;61413;-27.702;153.216;2023-12-07T03:40:15;1;1;
73204;PMS5003;61413;-27.702;153.216;2023-12-07T03:44:22;2;2;
73204;PMS5003;61413;-27.702;153.216;2023-12-07T03:46:49;4;2;
73204;PMS5003;61413;-27.702;153.216;2023-12-07T03:49:18;4;2;
73204;PMS5003;61413;-27.702;153.216;2023-12-07T03:51:45;2;2;
73204;PMS5003;61413;-27.702;153.216;2023-12-07T03:54:13;4;1;
73204;PMS5003;61413;-27.702;153.216;2023-12-07T03:56:40;1;1;
73204;PMS5003;61413;-27.702;153.216;2023-12-07T03:59:08;0;0;
73204;PMS5003;61413;-27.702;153.216;2023-12-07T04:01:35;2;2;
73204;PMS5003;61413;-27.702;153.216;2023-12-07T04:04:03;0;0;
73204;PMS5003;61413;-27.702;153.216;2023-12-07T04:06:31;2;1;
73204;PMS5003;61413;-27.702;153.216;2023-12-07T04:08:58;3;1;
73204;PMS5003;61413;-27.702;153.216;2023-12-07T04:11:27;0;0;
73204;PMS5003;61413;-27.702;153.216;2023-12-07T04:13:51;0;0;
73204;PMS5003;61413;-27.702;153.216;2023-12-07T04:16:19;2;2;
73204;PMS5003;61413;-27.702;153.216;2023-12-07T04:18:47;1;1;
73204;PMS5003;61413;-27.702;153.216;2023-12-07T04:21:15;1;1;
73204;PMS5003;61413;-27.702;153.216;2023-12-07T04:23:42;1;1;
73204;PMS5003;61413;-27.702;153.216;2023-12-07T04:26:09;3;1;
73204;PMS5003;61413;-27.702;153.216;2023-12-07T04:28:37;2;2;
73204;PMS5003;61413;-27.702;153.216;2023-12-07T04:31:05;2;1;
73204;PMS5003;61413;-27.702;153.216;2023-12-07T04:33:32;2;1;
73204;PMS5003;61413;-27.702;153.216;2023-12-07T04:36:00;2;2;
73204;PMS5003;61413;-27.702;153.216;2023-12-07T04:38:28;3;3;
73204;PMS5003;61413;-27.702;153.216;2023-12-07T04:40:56;2;2;
73204;PMS5003;61413;-27.702;153.216;2023-12-07T04:43:24;2;2;
73204;PMS5003;61413;-27.702;153.216;2023-12-07T04:45:51;3;1;
73204;PMS5003;61413;-27.702;153.216;2023-12-07T04:48:21;2;2;
73204;PMS5003;61413;-27.702;153.216;2023-12-07T04:50:45;1;1;
73204;PMS5003;61413;-27.702;153.216;2023-12-07T04:53:14;3;2;
73204;PMS5003;61413;-27.702;153.216;2023-12-07T04:55:41;4;4;
73204;PMS5003;61413;-27.702;153.216;2023-12-07T04:58:09;5;3;
73204;PMS5003;61413;-27.702;153.216;2023-12-07T05:00:36;3;3;
73204;PMS5003;61413;-27.702;153.216;2023-12-07T05:03:02;4;3;
73204;PMS5003;61413;-27.702;153.216;2023-12-07T05:05:30;2;2;
73204;PMS5003;61413;-27.702;153.216;2023-12-07T05:08:06;5;3;
73204;PMS5003;61413;-27.702;153.216;2023-12-07T05:10:25;2;2;
73204;PMS5003;61413;-27.702;153.216;2023-12-07T05:12:52;1;1;
73204;PMS5003;61413;-27.702;153.216;2023-12-07T05:15:20;3;3;
73204;PMS5003;61413;-27.702;153.216;2023-12-07T05:17:48;4;2;
73204;PMS5003;61413;-27.702;153.216;2023-12-07T05:20:15;1;1;
73204;PMS5003;61413;-27.702;153.216;2023-12-07T05:22:43;4;2;
73204;PMS5003;61413;-27.702;153.216;2023-12-07T05:25:10;1;1;
73204;PMS5003;61413;-27.702;153.216;2023-12-07T05:27:37;1;0;
73204;PMS5003;61413;-27.702;153.216;2023-12-07T05:30:05;4;2;
73204;PMS5003;61413;-27.702;153.216;2023-12-07T05:32:33;2;2;
73204;PMS5003;61413;-27.702;153.216;2023-12-07T05:35:00;2;2;
73204;PMS5003;61413;-27.702;153.216;2023-12-07T05:37:27;6;2;
73204;PMS5003;61413;-27.702;153.216;2023-12-07T05:39:55;3;3;
73204;PMS5003;61413;-27.702;153.216;2023-12-07T05:42:22;0;0;
73204;PMS5003;61413;-27.702;153.216;2023-12-07T05:44:50;1;1;
73204;PMS5003;61413;-27.702;153.216;2023-12-07T05:47:17;4;3;
73204;PMS5003;61413;-27.702;153.216;2023-12-07T05:49:45;3;2;
73204;PMS5003;61413;-27.702;153.216;2023-12-07T05:52:13;2;2;
73204;PMS5003;61413;-27.702;153.216;2023-12-07T05:54:40;4;4;
73204;PMS5003;61413;-27.702;153.216;2023-12-07T05:57:08;2;1;
73204;PMS5003;61413;-27.702;153.216;2023-12-07T05:59:37;5;4;
73204;PMS5003;61413;-27.702;153.216;2023-12-07T06:02:04;1;1;
73204;PMS5003;61413;-27.702;153.216;2023-12-07T06:04:31;3;1;
73204;PMS5003;61413;-27.702;153.216;2023-12-07T06:06:59;2;2;
73204;PMS5003;61413;-27.702;153.216;2023-12-07T06:09:26;2;2;
73204;PMS5003;61413;-27.702;153.216;2023-12-07T06:11:54;4;4;
73204;PMS5003;61413;-27.702;153.216;2023-12-07T06:14:21;4;4;
73204;PMS5003;61413;-27.702;153.216;2023-12-07T06:16:49;3;3;
73204;PMS5003;61413;-27.702;153.216;2023-12-07T06:20:26;2;2;
73204;PMS5003;61413;-27.702;153.216;2023-12-07T06:22:53;2;2;
73204;PMS5003;61413;-27.702;153.216;2023-12-07T06:25:20;2;2;
73204;PMS5003;61413;-27.702;153.216;2023-12-07T06:27:48;3;3;
73204;PMS5003;61413;-27.702;153.216;2023-12-07T06:30:30;6;4;
73204;PMS5003;61413;-27.702;153.216;2023-12-07T06:32:41;5;5;
73204;PMS5003;61413;-27.702;153.216;2023-12-07T06:35:10;5;3;
73204;PMS5003;61413;-27.702;153.216;2023-12-07T06:37:34;4;4;
73204;PMS5003;61413;-27.702;153.216;2023-12-07T06:40:02;5;5;
73204;PMS5003;61413;-27.702;153.216;2023-12-07T06:42:29;3;3;
73204;PMS5003;61413;-27.702;153.216;2023-12-07T06:44:55;3;2;
73204;PMS5003;61413;-27.702;153.216;2023-12-07T06:47:22;5;3;
73204;PMS5003;61413;-27.702;153.216;2023-12-07T06:49:50;4;4;
73204;PMS5003;61413;-27.702;153.216;2023-12-07T06:52:17;5;3;
73204;PMS5003;61413;-27.702;153.216;2023-12-07T06:54:45;8;7;
73204;PMS5003;61413;-27.702;153.216;2023-12-07T06:57:12;5;4;
73204;PMS5003;61413;-27.702;153.216;2023-12-07T06:59:40;4;4;
73204;PMS5003;61413;-27.702;153.216;2023-12-07T07:02:07;6;6;
73204;PMS5003;61413;-27.702;153.216;2023-12-07T07:04:34;5;4;
73204;PMS5003;61413;-27.702;153.216;2023-12-07T07:07:02;4;4;
73204;PMS5003;61413;-27.702;153.216;2023-12-07T07:09:29;6;6;
73204;PMS5003;61413;-27.702;153.216;2023-12-07T07:11:57;5;4;
73204;PMS5003;61413;-27.702;153.216;2023-12-07T07:14:25;6;6;
73204;PMS5003;61413;-27.702;153.216;2023-12-07T07:16:52;5;4;
73204;PMS5003;61413;-27.702;153.216;2023-12-07T07:19:20;6;5;
73204;PMS5003;61413;-27.702;153.216;2023-12-07T07:21:48;6;5;
73204;PMS5003;61413;-27.702;153.216;2023-12-07T07:26:51;6;5;
73204;PMS5003;61413;-27.702;153.216;2023-12-07T07:29:19;4;3;
73204;PMS5003;61413;-27.702;153.216;2023-12-07T07:31:46;4;4;
73204;PMS5003;61413;-27.702;153.216;2023-12-07T07:34:13;5;5;
73204;PMS5003;61413;-27.702;153.216;2023-12-07T07:36:41;8;7;
73204;PMS5003;61413;-27.702;153.216;2023-12-07T07:39:08;5;5;
73204;PMS5003;61413;-27.702;153.216;2023-12-07T07:41:36;5;5;
73204;PMS5003;61413;-27.702;153.216;2023-12-07T07:44:03;6;4;
73204;PMS5003;61413;-27.702;153.216;2023-12-07T07:49:20;6;6;
73204;PMS5003;61413;-27.702;153.216;2023-12-07T07:51:48;6;6;
73204;PMS5003;61413;-27.702;153.216;2023-12-07T07:54:15;3;3;
73204;PMS5003;61413;-27.702;153.216;2023-12-07T07:56:43;7;3;
73204;PMS5003;61413;-27.702;153.216;2023-12-07T07:59:10;9;8;
73204;PMS5003;61413;-27.702;153.216;2023-12-07T08:01:38;6;5;
73204;PMS5003;61413;-27.702;153.216;2023-12-07T08:05:51;6;6;
73204;PMS5003;61413;-27.702;153.216;2023-12-07T08:08:18;5;4;
73204;PMS5003;61413;-27.702;153.216;2023-12-07T08:10:46;8;6;
73204;PMS5003;61413;-27.702;153.216;2023-12-07T08:14:19;5;4;
73204;PMS5003;61413;-27.702;153.216;2023-12-07T08:16:46;5;5;
73204;PMS5003;61413;-27.702;153.216;2023-12-07T08:19:14;4;4;
73204;PMS5003;61413;-27.702;153.216;2023-12-07T08:21:41;7;5;
73204;PMS5003;61413;-27.702;153.216;2023-12-07T08:24:09;6;5;
73204;PMS5003;61413;-27.702;153.216;2023-12-07T08:26:36;3;3;
73204;PMS5003;61413;-27.702;153.216;2023-12-07T08:29:04;4;4;
73204;PMS5003;61413;-27.702;153.216;2023-12-07T08:31:31;5;3;
73204;PMS5003;61413;-27.702;153.216;2023-12-07T08:33:58;1;1;
73204;PMS5003;61413;-27.702;153.216;2023-12-07T08:36:25;5;4;
73204;PMS5003;61413;-27.702;153.216;2023-12-07T08:38:54;3;3;
73204;PMS5003;61413;-27.702;153.216;2023-12-07T08:41:21;5;4;
73204;PMS5003;61413;-27.702;153.216;2023-12-07T08:43:48;6;4;
73204;PMS5003;61413;-27.702;153.216;2023-12-07T08:46:58;4;4;
73204;PMS5003;61413;-27.702;153.216;2023-12-07T08:49:26;3;3;
73204;PMS5003;61413;-27.702;153.216;2023-12-07T08:51:53;3;3;
73204;PMS5003;61413;-27.702;153.216;2023-12-07T08:54:20;3;3;
73204;PMS5003;61413;-27.702;153.216;2023-12-07T08:56:47;4;2;
73204;PMS5003;61413;-27.702;153.216;2023-12-07T08:59:14;4;3;
73204;PMS5003;61413;-27.702;153.216;2023-12-07T09:01:42;6;4;
73204;PMS5003;61413;-27.702;153.216;2023-12-07T09:04:10;3;3;
73204;PMS5003;61413;-27.702;153.216;2023-12-07T09:06:37;4;4;
73204;PMS5003;61413;-27.702;153.216;2023-12-07T09:09:03;5;4;
73204;PMS5003;61413;-27.702;153.216;2023-12-07T09:11:30;7;3;
73204;PMS5003;61413;-27.702;153.216;2023-12-07T09:13:57;6;4;
73204;PMS5003;61413;-27.702;153.216;2023-12-07T09:16:25;5;4;
73204;PMS5003;61413;-27.702;153.216;2023-12-07T09:18:52;8;3;
73204;PMS5003;61413;-27.702;153.216;2023-12-07T09:21:19;3;2;
73204;PMS5003;61413;-27.702;153.216;2023-12-07T09:23:47;3;3;
73204;PMS5003;61413;-27.702;153.216;2023-12-07T09:26:14;6;4;
73204;PMS5003;61413;-27.702;153.216;2023-12-07T09:28:42;5;3;
73204;PMS5003;61413;-27.702;153.216;2023-12-07T09:31:09;4;4;
73204;PMS5003;61413;-27.702;153.216;2023-12-07T09:33:36;4;4;
73204;PMS5003;61413;-27.702;153.216;2023-12-07T09:36:04;4;3;
73204;PMS5003;61413;-27.702;153.216;2023-12-07T09:38:31;10;5;
73204;PMS5003;61413;-27.702;153.216;2023-12-07T09:41:00;5;4;
73204;PMS5003;61413;-27.702;153.216;2023-12-07T09:43:28;7;4;
73204;PMS5003;61413;-27.702;153.216;2023-12-07T09:45:55;7;5;
73204;PMS5003;61413;-27.702;153.216;2023-12-07T09:48:21;4;4;
73204;PMS5003;61413;-27.702;153.216;2023-12-07T09:50:48;6;6;
73204;PMS5003;61413;-27.702;153.216;2023-12-07T09:53:16;9;7;
73204;PMS5003;61413;-27.702;153.216;2023-12-07T09:55:43;6;5;
73204;PMS5003;61413;-27.702;153.216;2023-12-07T09:58:09;6;3;
73204;PMS5003;61413;-27.702;153.216;2023-12-07T10:00:36;7;6;
73204;PMS5003;61413;-27.702;153.216;2023-12-07T10:03:04;6;4;
73204;PMS5003;61413;-27.702;153.216;2023-12-07T10:05:32;7;5;
73204;PMS5003;61413;-27.702;153.216;2023-12-07T10:07:57;4;4;
73204;PMS5003;61413;-27.702;153.216;2023-12-07T10:10:25;7;5;
73204;PMS5003;61413;-27.702;153.216;2023-12-07T10:12:52;5;5;
73204;PMS5003;61413;-27.702;153.216;2023-12-07T10:15:21;5;4;
73204;PMS5003;61413;-27.702;153.216;2023-12-07T10:17:49;7;5;
73204;PMS5003;61413;-27.702;153.216;2023-12-07T10:20:14;7;5;
73204;PMS5003;61413;-27.702;153.216;2023-12-07T10:22:42;7;6;
73204;PMS5003;61413;-27.702;153.216;2023-12-07T10:25:10;7;5;
73204;PMS5003;61413;-27.702;153.216;2023-12-07T10:27:37;5;5;
73204;PMS5003;61413;-27.702;153.216;2023-12-07T10:30:02;5;5;
73204;PMS5003;61413;-27.702;153.216;2023-12-07T10:32:30;6;6;
73204;PMS5003;61413;-27.702;153.216;2023-12-07T10:34:56;10;6;
73204;PMS5003;61413;-27.702;153.216;2023-12-07T10:37:24;5;5;
73204;PMS5003;61413;-27.702;153.216;2023-12-07T10:39:51;6;4;
73204;PMS5003;61413;-27.702;153.216;2023-12-07T10:42:19;7;5;
73204;PMS5003;61413;-27.702;153.216;2023-12-07T10:44:46;6;4;
73204;PMS5003;61413;-27.702;153.216;2023-12-07T10:47:13;5;5;
73204;PMS5003;61413;-27.702;153.216;2023-12-07T10:49:42;7;5;
73204;PMS5003;61413;-27.702;153.216;2023-12-07T10:53:10;5;5;
73204;PMS5003;61413;-27.702;153.216;2023-12-07T10:55:38;6;6;
73204;PMS5003;61413;-27.702;153.216;2023-12-07T10:58:01;5;5;
73204;PMS5003;61413;-27.702;153.216;2023-12-07T11:00:28;5;5;
73204;PMS5003;61413;-27.702;153.216;2023-12-07T11:02:56;5;5;
73204;PMS5003;61413;-27.702;153.216;2023-12-07T11:05:22;5;5;
73204;PMS5003;61413;-27.702;153.216;2023-12-07T11:07:52;7;5;
73204;PMS5003;61413;-27.702;153.216;2023-12-07T11:10:18;6;6;
73204;PMS5003;61413;-27.702;153.216;2023-12-07T11:12:44;6;5;
73204;PMS5003;61413;-27.702;153.216;2023-12-07T11:15:08;7;6;
73204;PMS5003;61413;-27.702;153.216;2023-12-07T11:22:50;9;5;
73204;PMS5003;61413;-27.702;153.216;2023-12-07T11:25:14;6;5;
73204;PMS5003;61413;-27.702;153.216;2023-12-07T11:27:44;10;7;
73204;PMS5003;61413;-27.702;153.216;2023-12-07T11:30:09;7;6;
73204;PMS5003;61413;-27.702;153.216;2023-12-07T11:32:33;6;6;
73204;PMS5003;61413;-27.702;153.216;2023-12-07T11:35:03;7;5;
73204;PMS5003;61413;-27.702;153.216;2023-12-07T11:37:27;7;5;
73204;PMS5003;61413;-27.702;153.216;2023-12-07T11:42:00;4;4;
73204;PMS5003;61413;-27.702;153.216;2023-12-07T11:44:33;7;6;
73204;PMS5003;61413;-27.702;153.216;2023-12-07T11:46:54;8;5;
73204;PMS5003;61413;-27.702;153.216;2023-12-07T11:49:21;4;4;
73204;PMS5003;61413;-27.702;153.216;2023-12-07T11:51:49;7;6;
73204;PMS5003;61413;-27.702;153.216;2023-12-07T11:54:16;5;5;
73204;PMS5003;61413;-27.702;153.216;2023-12-07T11:56:44;6;4;
73204;PMS5003;61413;-27.702;153.216;2023-12-07T11:59:12;8;6;
73204;PMS5003;61413;-27.702;153.216;2023-12-07T12:01:39;11;5;
73204;PMS5003;61413;-27.702;153.216;2023-12-07T12:04:06;4;4;
73204;PMS5003;61413;-27.702;153.216;2023-12-07T12:06:31;5;5;
73204;PMS5003;61413;-27.702;153.216;2023-12-07T12:08:58;5;5;
73204;PMS5003;61413;-27.702;153.216;2023-12-07T12:11:26;5;5;
73204;PMS5003;61413;-27.702;153.216;2023-12-07T12:13:53;7;6;
73204;PMS5003;61413;-27.702;153.216;2023-12-07T12:16:21;6;5;
73204;PMS5003;61413;-27.702;153.216;2023-12-07T12:18:48;4;4;
73204;PMS5003;61413;-27.702;153.216;2023-12-07T12:21:15;7;6;
73204;PMS5003;61413;-27.702;153.216;2023-12-07T12:23:43;5;4;
73204;PMS5003;61413;-27.702;153.216;2023-12-07T12:28:13;6;6;
73204;PMS5003;61413;-27.702;153.216;2023-12-07T12:30:39;7;5;
73204;PMS5003;61413;-27.702;153.216;2023-12-07T12:33:07;9;8;
73204;PMS5003;61413;-27.702;153.216;2023-12-07T12:35:35;7;6;
73204;PMS5003;61413;-27.702;153.216;2023-12-07T12:38:02;5;5;
73204;PMS5003;61413;-27.702;153.216;2023-12-07T12:40:28;5;5;
73204;PMS5003;61413;-27.702;153.216;2023-12-07T12:42:55;7;4;
73204;PMS5003;61413;-27.702;153.216;2023-12-07T12:45:22;6;4;
73204;PMS5003;61413;-27.702;153.216;2023-12-07T12:48:56;5;5;
73204;PMS5003;61413;-27.702;153.216;2023-12-07T12:51:24;5;4;
73204;PMS5003;61413;-27.702;153.216;2023-12-07T12:56:21;5;5;
73204;PMS5003;61413;-27.702;153.216;2023-12-07T12:58:49;6;6;
73204;PMS5003;61413;-27.702;153.216;2023-12-07T13:01:17;6;6;
73204;PMS5003;61413;-27.702;153.216;2023-12-07T13:03:42;7;5;
73204;PMS5003;61413;-27.702;153.216;2023-12-07T13:07:52;7;5;
73204;PMS5003;61413;-27.702;153.216;2023-12-07T13:10:19;4;2;
73204;PMS5003;61413;-27.702;153.216;2023-12-07T13:12:47;6;4;
73204;PMS5003;61413;-27.702;153.216;2023-12-07T13:15:15;6;5;
73204;PMS5003;61413;-27.702;153.216;2023-12-07T13:17:42;6;5;
73204;PMS5003;61413;-27.702;153.216;2023-12-07T13:20:10;6;6;
73204;PMS5003;61413;-27.702;153.216;2023-12-07T13:22:37;6;4;
73204;PMS5003;61413;-27.702;153.216;2023-12-07T13:25:05;8;6;
73204;PMS5003;61413;-27.702;153.216;2023-12-07T13:27:32;5;5;
73204;PMS5003;61413;-27.702;153.216;2023-12-07T13:30:00;7;6;
73204;PMS5003;61413;-27.702;153.216;2023-12-07T13:32:28;7;7;
73204;PMS5003;61413;-27.702;153.216;2023-12-07T13:34:55;6;6;
73204;PMS5003;61413;-27.702;153.216;2023-12-07T13:37:23;7;5;
73204;PMS5003;61413;-27.702;153.216;2023-12-07T13:40:33;6;5;
73204;PMS5003;61413;-27.702;153.216;2023-12-07T13:43:00;4;4;
73204;PMS5003;61413;-27.702;153.216;2023-12-07T13:45:28;4;4;
73204;PMS5003;61413;-27.702;153.216;2023-12-07T13:47:55;6;6;
73204;PMS5003;61413;-27.702;153.216;2023-12-07T13:50:23;6;4;
73204;PMS5003;61413;-27.702;153.216;2023-12-07T13:52:50;6;6;
73204;PMS5003;61413;-27.702;153.216;2023-12-07T13:55:17;11;6;
73204;PMS5003;61413;-27.702;153.216;2023-12-07T13:57:44;6;6;
73204;PMS5003;61413;-27.702;153.216;2023-12-07T14:00:13;5;5;
73204;PMS5003;61413;-27.702;153.216;2023-12-07T14:02:38;4;4;
73204;PMS5003;61413;-27.702;153.216;2023-12-07T14:05:05;6;6;
73204;PMS5003;61413;-27.702;153.216;2023-12-07T14:07:33;11;4;
73204;PMS5003;61413;-27.702;153.216;2023-12-07T14:10:00;6;6;
73204;PMS5003;61413;-27.702;153.216;2023-12-07T14:12:28;5;5;
73204;PMS5003;61413;-27.702;153.216;2023-12-07T14:14:55;7;5;
73204;PMS5003;61413;-27.702;153.216;2023-12-07T14:17:23;8;6;
73204;PMS5003;61413;-27.702;153.216;2023-12-07T14:19:50;8;6;
73204;PMS5003;61413;-27.702;153.216;2023-12-07T14:25:15;7;5;
73204;PMS5003;61413;-27.702;153.216;2023-12-07T14:27:43;9;6;
73204;PMS5003;61413;-27.702;153.216;2023-12-07T14:30:10;6;5;
73204;PMS5003;61413;-27.702;153.216;2023-12-07T14:32:38;8;7;
73204;PMS5003;61413;-27.702;153.216;2023-12-07T14:35:05;7;6;
73204;PMS5003;61413;-27.702;153.216;2023-12-07T14:37:33;7;7;
73204;PMS5003;61413;-27.702;153.216;2023-12-07T14:40:01;4;4;
73204;PMS5003;61413;-27.702;153.216;2023-12-07T14:42:28;6;4;
73204;PMS5003;61413;-27.702;153.216;2023-12-07T14:46:48;10;4;
73204;PMS5003;61413;-27.702;153.216;2023-12-07T14:49:16;4;4;
73204;PMS5003;61413;-27.702;153.216;2023-12-07T14:51:43;4;3;
73204;PMS5003;61413;-27.702;153.216;2023-12-07T14:54:11;4;4;
73204;PMS5003;61413;-27.702;153.216;2023-12-07T14:56:38;4;4;
73204;PMS5003;61413;-27.702;153.216;2023-12-07T15:01:16;5;2;
73204;PMS5003;61413;-27.702;153.216;2023-12-07T15:03:43;2;2;
73204;PMS5003;61413;-27.702;153.216;2023-12-07T15:06:10;7;4;
73204;PMS5003;61413;-27.702;153.216;2023-12-07T15:08:38;3;3;
73204;PMS5003;61413;-27.702;153.216;2023-12-07T15:11:06;2;2;
73204;PMS5003;61413;-27.702;153.216;2023-12-07T15:13:33;2;2;
73204;PMS5003;61413;-27.702;153.216;2023-12-07T15:16:01;4;3;
73204;PMS5003;61413;-27.702;153.216;2023-12-07T15:18:29;4;4;
73204;PMS5003;61413;-27.702;153.216;2023-12-07T15:20:57;5;4;
73204;PMS5003;61413;-27.702;153.216;2023-12-07T15:23:25;3;3;
73204;PMS5003;61413;-27.702;153.216;2023-12-07T15:25:52;5;5;
73204;PMS5003;61413;-27.702;153.216;2023-12-07T15:28:20;4;2;
73204;PMS5003;61413;-27.702;153.216;2023-12-07T15:30:47;3;3;
73204;PMS5003;61413;-27.702;153.216;2023-12-07T15:33:15;3;2;
73204;PMS5003;61413;-27.702;153.216;2023-12-07T15:35:42;4;3;
73204;PMS5003;61413;-27.702;153.216;2023-12-07T15:38:09;2;2;
73204;PMS5003;61413;-27.702;153.216;2023-12-07T15:40:37;4;3;
73204;PMS5003;61413;-27.702;153.216;2023-12-07T15:43:04;4;2;
73204;PMS5003;61413;-27.702;153.216;2023-12-07T15:45:31;3;3;
73204;PMS5003;61413;-27.702;153.216;2023-12-07T15:47:58;2;2;
73204;PMS5003;61413;-27.702;153.216;2023-12-07T15:50:25;3;2;
73204;PMS5003;61413;-27.702;153.216;2023-12-07T15:52:53;5;3;
73204;PMS5003;61413;-27.702;153.216;2023-12-07T15:55:20;2;2;
73204;PMS5003;61413;-27.702;153.216;2023-12-07T15:57:47;3;2;
73204;PMS5003;61413;-27.702;153.216;2023-12-07T16:00:15;2;2;
73204;PMS5003;61413;-27.702;153.216;2023-12-07T16:02:42;1;1;
73204;PMS5003;61413;-27.702;153.216;2023-12-07T16:05:09;5;1;
73204;PMS5003;61413;-27.702;153.216;2023-12-07T16:07:36;1;1;
73204;PMS5003;61413;-27.702;153.216;2023-12-07T16:10:03;3;3;
73204;PMS5003;61413;-27.702;153.216;2023-12-07T16:12:31;3;3;
73204;PMS5003;61413;-27.702;153.216;2023-12-07T16:14:58;4;4;
73204;PMS5003;61413;-27.702;153.216;2023-12-07T16:17:25;2;2;
73204;PMS5003;61413;-27.702;153.216;2023-12-07T16:19:53;7;4;
73204;PMS5003;61413;-27.702;153.216;2023-12-07T16:22:20;2;1;
73204;PMS5003;61413;-27.702;153.216;2023-12-07T16:24:48;4;3;
73204;PMS5003;61413;-27.702;153.216;2023-12-07T16:27:15;2;2;
73204;PMS5003;61413;-27.702;153.216;2023-12-07T16:29:42;5;4;
73204;PMS5003;61413;-27.702;153.216;2023-12-07T16:33:22;4;4;
73204;PMS5003;61413;-27.702;153.216;2023-12-07T16:35:50;2;2;
73204;PMS5003;61413;-27.702;153.216;2023-12-07T16:38:17;7;5;
73204;PMS5003;61413;-27.702;153.216;2023-12-07T16:40:44;4;2;
73204;PMS5003;61413;-27.702;153.216;2023-12-07T16:43:12;3;3;
73204;PMS5003;61413;-27.702;153.216;2023-12-07T16:46:52;4;4;
73204;PMS5003;61413;-27.702;153.216;2023-12-07T16:49:19;3;3;